createdAt,value
2018-05-21T00:01:06.273Z,2.80
2018-05-21T00:03:32.674Z,2.43
2018-05-21T00:05:59.761Z,2.23
2018-05-21T00:08:26.108Z,2.57
2018-05-21T00:10:53.220Z,2.50
2018-05-21T00:13:19.580Z,2.70
2018-05-21T00:15:46.690Z,2.50
2018-05-21T00:18:13.060Z,2.57
2018-05-21T00:20:39.378Z,2.33
2018-05-21T00:23:05.743Z,2.37
2018-05-21T00:25:32.842Z,2.60
2018-05-21T00:27:59.191Z,2.00
2018-05-21T00:30:25.545Z,2.20
2018-05-21T00:32:51.885Z,2.40
2018-05-21T00:35:18.216Z,2.17
2018-05-21T00:37:45.311Z,2.27
2018-05-21T00:40:11.693Z,2.40
2018-05-21T00:42:38.016Z,2.30
2018-05-21T00:45:04.387Z,2.43
2018-05-21T00:47:31.460Z,2.57
2018-05-21T00:49:57.849Z,2.53
2018-05-21T00:52:24.939Z,2.40
2018-05-21T00:55:03.555Z,2.43
2018-05-21T00:57:29.911Z,2.10
2018-05-21T00:59:56.261Z,2.10
2018-05-21T01:02:22.625Z,2.43
2018-05-21T01:04:48.985Z,2.57
2018-05-21T01:07:15.347Z,2.40
2018-05-21T01:09:41.719Z,2.40
2018-05-21T01:12:08.186Z,2.53
2018-05-21T01:14:34.537Z,2.50
2018-05-21T01:17:00.934Z,1.90
2018-05-21T01:19:27.301Z,2.27
2018-05-21T01:21:53.645Z,2.10
2018-05-21T01:24:20.005Z,2.37
2018-05-21T01:26:46.355Z,2.67
2018-05-21T01:29:13.426Z,2.50
2018-05-21T01:31:39.796Z,2.60
2018-05-21T01:34:06.200Z,2.67
2018-05-21T01:36:32.648Z,2.00
2018-05-21T01:38:59.071Z,2.80
2018-05-21T01:41:25.459Z,2.80
2018-05-21T01:43:51.799Z,2.50
2018-05-21T01:46:18.173Z,2.20
2018-05-21T01:48:44.545Z,3.40
2018-05-21T01:51:10.924Z,2.57
2018-05-21T01:53:38.076Z,2.30
2018-05-21T01:56:04.457Z,2.30
2018-05-21T01:58:30.808Z,2.13
2018-05-21T02:00:57.270Z,2.83
2018-05-21T02:03:23.608Z,2.20
2018-05-21T02:05:49.950Z,2.63
2018-05-21T02:08:16.480Z,2.70
2018-05-21T02:10:42.835Z,2.80
2018-05-21T02:13:09.933Z,2.03
2018-05-21T02:15:36.332Z,2.57
2018-05-21T02:18:02.745Z,2.40
2018-05-21T02:20:29.045Z,2.37
2018-05-21T02:22:55.440Z,3.47
2018-05-21T02:25:21.782Z,2.50
2018-05-21T02:27:48.182Z,2.90
2018-05-21T02:30:14.616Z,3.00
2018-05-21T02:32:40.972Z,2.83
2018-05-21T02:35:07.313Z,3.10
2018-05-21T02:37:33.741Z,2.40
2018-05-21T02:40:00.101Z,2.67
2018-05-21T02:42:26.408Z,2.57
2018-05-21T02:44:52.777Z,2.90
2018-05-21T02:47:19.125Z,3.00
2018-05-21T02:49:46.299Z,2.73
2018-05-21T02:52:12.640Z,2.67
2018-05-21T02:54:38.986Z,2.87
2018-05-21T02:57:05.349Z,2.77
2018-05-21T02:59:31.723Z,3.20
2018-05-21T03:01:58.066Z,3.03
2018-05-21T03:04:24.406Z,2.47
2018-05-21T03:06:50.775Z,2.60
2018-05-21T03:09:17.180Z,2.87
2018-05-21T03:11:43.538Z,3.17
2018-05-21T03:14:09.901Z,3.03
2018-05-21T03:16:36.292Z,2.47
2018-05-21T03:19:02.620Z,2.90
2018-05-21T03:21:28.986Z,2.57
2018-05-21T03:23:55.304Z,3.27
2018-05-21T03:26:21.656Z,2.70
2018-05-21T03:28:48.766Z,3.00
2018-05-21T03:31:15.138Z,3.17
2018-05-21T03:33:42.201Z,2.87
2018-05-21T03:36:08.561Z,3.00
2018-05-21T03:38:34.913Z,2.97
2018-05-21T03:41:02.057Z,2.90
2018-05-21T03:43:28.443Z,2.40
2018-05-21T03:45:54.778Z,2.83
2018-05-21T03:48:21.110Z,2.93
2018-05-21T03:50:47.479Z,3.63
2018-05-21T03:53:13.814Z,3.03
2018-05-21T03:55:40.141Z,2.87
2018-05-21T03:58:18.737Z,3.30
2018-05-21T04:00:57.229Z,3.27
2018-05-21T04:03:35.764Z,3.10
2018-05-21T04:06:02.804Z,2.83
2018-05-21T04:08:29.155Z,3.00
2018-05-21T04:10:55.492Z,2.73
2018-05-21T04:13:21.860Z,3.17
2018-05-21T04:15:48.189Z,3.07
2018-05-21T04:18:15.296Z,3.10
2018-05-21T04:20:42.475Z,3.43
2018-05-21T04:23:08.790Z,2.90
2018-05-21T04:25:35.199Z,3.10
2018-05-21T04:28:01.481Z,3.10
2018-05-21T04:30:27.817Z,3.20
2018-05-21T04:32:54.792Z,3.07
2018-05-21T04:35:21.121Z,3.20
2018-05-21T04:37:47.456Z,3.07
2018-05-21T04:40:13.842Z,2.80
2018-05-21T04:42:40.154Z,3.47
2018-05-21T04:45:07.314Z,3.17
2018-05-21T04:47:33.657Z,3.87
2018-05-21T04:50:01.482Z,3.60
2018-05-21T04:52:27.809Z,3.17
2018-05-21T04:54:54.198Z,3.43
2018-05-21T04:57:21.269Z,3.17
2018-05-21T04:59:47.671Z,3.60
2018-05-21T05:02:14.037Z,3.50
2018-05-21T05:04:40.383Z,2.83
2018-05-21T05:07:06.726Z,3.83
2018-05-21T05:09:33.098Z,3.10
2018-05-21T05:11:59.422Z,3.93
2018-05-21T05:14:25.790Z,2.97
2018-05-21T05:16:52.221Z,3.27
2018-05-21T05:19:18.565Z,2.93
2018-05-21T05:21:44.919Z,2.93
2018-05-21T05:24:11.284Z,3.10
2018-05-21T05:26:37.723Z,3.07
2018-05-21T05:29:04.753Z,3.37
2018-05-21T05:31:31.124Z,3.30
2018-05-21T05:33:58.192Z,2.80
2018-05-21T05:36:24.558Z,3.23
2018-05-21T05:38:50.998Z,2.80
2018-05-21T05:41:17.334Z,2.80
2018-05-21T05:43:43.669Z,3.90
2018-05-21T05:46:10.051Z,3.20
2018-05-21T05:48:36.405Z,3.03
2018-05-21T05:51:02.765Z,2.73
2018-05-21T05:53:29.143Z,2.60
2018-05-21T05:55:55.493Z,3.47
2018-05-21T05:58:21.863Z,3.27
2018-05-21T06:00:48.287Z,3.40
2018-05-21T06:03:14.622Z,2.97
2018-05-21T06:05:40.990Z,3.80
2018-05-21T06:08:07.364Z,3.70
2018-05-21T06:10:33.725Z,3.20
2018-05-21T06:13:00.097Z,3.57
2018-05-21T06:15:26.484Z,2.90
2018-05-21T06:17:52.820Z,3.20
2018-05-21T06:20:19.934Z,3.37
2018-05-21T06:22:46.303Z,3.17
2018-05-21T06:25:12.629Z,3.50
2018-05-21T06:27:38.965Z,3.70
2018-05-21T06:30:05.363Z,2.90
2018-05-21T06:32:31.707Z,2.83
2018-05-21T06:34:59.530Z,2.73
2018-05-21T06:37:25.885Z,3.10
2018-05-21T06:39:52.250Z,3.20
2018-05-21T06:42:18.566Z,2.97
2018-05-21T06:44:44.949Z,3.10
2018-05-21T06:47:11.329Z,2.60
2018-05-21T06:49:37.673Z,3.40
2018-05-21T06:52:04.085Z,3.57
2018-05-21T06:54:30.424Z,2.77
2018-05-21T06:56:56.777Z,3.00
2018-05-21T06:59:23.112Z,3.03
2018-05-21T07:01:50.190Z,3.07
2018-05-21T07:04:16.521Z,3.03
2018-05-21T07:06:42.988Z,2.50
2018-05-21T07:09:09.325Z,2.70
2018-05-21T07:11:35.664Z,2.90
2018-05-21T07:14:02.017Z,2.83
2018-05-21T07:16:28.355Z,3.50
2018-05-21T07:18:54.696Z,2.50
2018-05-21T07:21:21.814Z,2.57
2018-05-21T07:23:48.912Z,2.63
2018-05-21T07:26:15.267Z,2.57
2018-05-21T07:28:41.678Z,2.80
2018-05-21T07:31:08.084Z,2.40
2018-05-21T07:33:35.174Z,3.07
2018-05-21T07:36:01.502Z,2.30
2018-05-21T07:38:27.858Z,2.90
2018-05-21T07:40:54.213Z,2.70
2018-05-21T07:43:20.561Z,2.67
2018-05-21T07:45:47.656Z,2.53
2018-05-21T07:48:13.985Z,2.37
2018-05-21T07:50:40.337Z,2.27
2018-05-21T07:53:08.152Z,2.80
2018-05-21T07:55:34.570Z,3.10
2018-05-21T07:58:01.705Z,2.47
2018-05-21T08:00:28.152Z,2.43
2018-05-21T08:02:54.518Z,2.37
2018-05-21T08:05:21.050Z,3.00
2018-05-21T08:07:47.326Z,2.63
2018-05-21T08:10:13.670Z,2.63
2018-05-21T08:12:40.828Z,2.40
2018-05-21T08:15:07.927Z,2.53
2018-05-21T08:17:34.323Z,2.60
2018-05-21T08:20:00.763Z,2.30
2018-05-21T08:22:27.145Z,2.27
2018-05-21T08:24:55.158Z,2.30
2018-05-21T08:27:19.950Z,2.30
2018-05-21T08:29:47.164Z,2.37
2018-05-21T08:32:13.518Z,2.90
2018-05-21T08:34:40.729Z,2.40
2018-05-21T08:37:07.144Z,2.67
2018-05-21T08:39:33.598Z,2.57
2018-05-21T08:42:00.775Z,3.40
2018-05-21T08:44:27.218Z,2.60
2018-05-21T08:46:54.344Z,2.50
2018-05-21T08:49:21.593Z,3.43
2018-05-21T08:51:47.969Z,3.90
2018-05-21T08:54:14.421Z,3.80
2018-05-21T08:56:40.968Z,3.20
2018-05-21T08:59:07.274Z,3.77
2018-05-21T09:01:33.662Z,3.47
2018-05-21T09:04:01.446Z,3.73
2018-05-21T09:06:27.868Z,4.23
2018-05-21T09:08:54.296Z,4.27
2018-05-21T09:11:20.750Z,4.23
2018-05-21T09:13:47.094Z,4.57
2018-05-21T09:16:13.515Z,4.97
2018-05-21T09:18:39.865Z,3.83
2018-05-21T09:21:06.308Z,4.37
2018-05-21T09:23:32.677Z,4.40
2018-05-21T09:25:59.293Z,4.13
2018-05-21T09:28:25.742Z,4.20
2018-05-21T09:30:52.486Z,4.43
2018-05-21T09:33:18.939Z,4.07
2018-05-21T09:35:45.316Z,4.30
2018-05-21T09:38:11.672Z,4.27
2018-05-21T09:40:38.356Z,5.03
2018-05-21T09:43:04.756Z,3.83
2018-05-21T09:45:31.110Z,4.27
2018-05-21T09:47:57.559Z,4.03
2018-05-21T09:50:25.413Z,4.10
2018-05-21T09:52:51.768Z,4.63
2018-05-21T09:55:18.245Z,4.27
2018-05-21T09:57:44.693Z,3.60
2018-05-21T10:00:11.815Z,3.97
2018-05-21T10:02:38.277Z,4.17
2018-05-21T10:05:04.680Z,3.60
2018-05-21T10:07:31.087Z,4.00
2018-05-21T10:09:57.471Z,4.10
2018-05-21T10:12:23.860Z,3.60
2018-05-21T10:14:50.194Z,3.40
2018-05-21T10:17:16.578Z,3.47
2018-05-21T10:19:42.954Z,3.90
2018-05-21T10:22:09.341Z,3.67
2018-05-21T10:24:36.538Z,4.13
2018-05-21T10:27:03.646Z,4.20
2018-05-21T10:29:30.045Z,3.87
2018-05-21T10:31:56.403Z,3.90
2018-05-21T10:34:22.853Z,3.53
2018-05-21T10:36:49.256Z,3.30
2018-05-21T10:39:15.707Z,4.00
2018-05-21T10:41:42.142Z,3.30
2018-05-21T10:44:08.570Z,3.77
2018-05-21T10:46:34.997Z,3.60
2018-05-21T10:49:02.208Z,3.97
2018-05-21T10:51:28.663Z,3.87
2018-05-21T10:53:55.095Z,3.90
2018-05-21T10:56:21.533Z,3.90
2018-05-21T10:58:47.933Z,4.60
2018-05-21T11:01:14.401Z,4.07
2018-05-21T11:03:40.799Z,3.93
2018-05-21T11:06:07.195Z,3.37
2018-05-21T11:08:33.608Z,3.33
2018-05-21T11:11:01.504Z,3.90
2018-05-21T11:13:27.860Z,4.13
2018-05-21T11:15:54.314Z,3.30
2018-05-21T11:18:20.675Z,3.23
2018-05-21T11:20:47.063Z,3.30
2018-05-21T11:23:13.493Z,3.30
2018-05-21T11:25:39.887Z,3.50
2018-05-21T11:28:06.981Z,3.60
2018-05-21T11:30:33.461Z,3.40
2018-05-21T11:32:59.840Z,3.60
2018-05-21T11:35:26.937Z,3.50
2018-05-21T11:37:53.316Z,2.83
2018-05-21T11:40:19.685Z,3.67
2018-05-21T11:42:46.121Z,3.67
2018-05-21T11:45:12.565Z,3.23
2018-05-21T11:47:38.907Z,3.37
2018-05-21T11:50:05.293Z,3.40
2018-05-21T11:52:31.705Z,3.20
2018-05-21T11:54:58.159Z,3.23
2018-05-21T11:57:24.521Z,3.13
2018-05-21T11:59:50.945Z,3.40
2018-05-21T12:02:17.342Z,3.70
2018-05-21T12:04:43.728Z,3.70
2018-05-21T12:07:10.085Z,3.33
2018-05-21T12:09:37.152Z,3.60
2018-05-21T12:12:03.549Z,3.80
2018-05-21T12:14:31.418Z,3.87
2018-05-21T12:16:57.758Z,3.53
2018-05-21T12:19:24.121Z,3.33
2018-05-21T12:21:50.493Z,3.50
2018-05-21T12:24:16.828Z,3.37
2018-05-21T12:26:43.187Z,3.47
2018-05-21T12:29:10.305Z,3.50
2018-05-21T12:31:36.642Z,3.80
2018-05-21T12:34:03.784Z,3.63
2018-05-21T12:36:30.318Z,3.60
2018-05-21T12:38:56.695Z,3.90
2018-05-21T12:41:23.902Z,3.90
2018-05-21T12:43:50.269Z,4.00
2018-05-21T12:46:17.374Z,3.70
2018-05-21T12:48:43.705Z,3.97
2018-05-21T12:51:10.110Z,4.17
2018-05-21T12:53:36.465Z,4.17
2018-05-21T12:56:02.809Z,3.90
2018-05-21T12:58:29.224Z,4.00
2018-05-21T13:00:55.574Z,3.57
2018-05-21T13:03:21.978Z,3.77
2018-05-21T13:05:49.070Z,3.83
2018-05-21T13:08:15.394Z,3.77
2018-05-21T13:10:41.786Z,3.90
2018-05-21T13:13:08.148Z,3.93
2018-05-21T13:15:34.519Z,3.60
2018-05-21T13:18:01.768Z,3.73
2018-05-21T13:20:28.405Z,3.90
2018-05-21T13:22:55.705Z,3.10
2018-05-21T13:25:23.331Z,3.67
2018-05-21T13:27:50.452Z,3.60
2018-05-21T13:30:16.861Z,3.70
2018-05-21T13:32:43.282Z,3.90
2018-05-21T13:35:09.680Z,3.73
2018-05-21T13:37:36.777Z,4.57
2018-05-21T13:40:03.846Z,3.60
2018-05-21T13:42:30.259Z,3.80
2018-05-21T13:44:56.602Z,3.50
2018-05-21T13:47:22.981Z,3.73
2018-05-21T13:49:49.371Z,4.17
2018-05-21T13:52:15.944Z,3.70
2018-05-21T13:54:42.337Z,4.20
2018-05-21T13:57:08.729Z,3.80
2018-05-21T13:59:35.067Z,3.20
2018-05-21T14:02:01.530Z,3.40
2018-05-21T14:04:27.930Z,3.60
2018-05-21T14:06:54.281Z,3.40
2018-05-21T14:09:20.646Z,3.70
2018-05-21T14:11:48.599Z,3.27
2018-05-21T14:14:15.728Z,3.40
2018-05-21T14:16:42.088Z,3.37
2018-05-21T14:19:08.512Z,3.57
2018-05-21T14:21:34.837Z,3.57
2018-05-21T14:24:01.200Z,4.00
2018-05-21T14:26:28.362Z,3.70
2018-05-21T14:28:54.733Z,4.03
2018-05-21T14:31:21.107Z,3.50
2018-05-21T14:33:47.495Z,3.03
2018-05-21T14:36:13.825Z,3.87
2018-05-21T14:38:40.160Z,3.30
2018-05-21T14:41:06.520Z,3.70
2018-05-21T14:43:32.866Z,3.00
2018-05-21T14:45:59.212Z,3.60
2018-05-21T14:48:26.383Z,3.10
2018-05-21T14:50:52.692Z,3.20
2018-05-21T14:53:19.877Z,4.00
2018-05-21T14:55:46.328Z,3.27
2018-05-21T14:58:12.695Z,3.13
2018-05-21T15:00:39.785Z,4.80
2018-05-21T15:03:06.198Z,3.00
2018-05-21T15:05:33.267Z,3.43
2018-05-21T15:08:00.625Z,2.80
2018-05-21T15:10:27.013Z,3.63
2018-05-21T15:12:54.109Z,3.70
2018-05-21T15:15:20.444Z,4.00
2018-05-21T15:17:46.822Z,3.30
2018-05-21T15:20:13.908Z,3.60
2018-05-21T15:22:40.246Z,3.70
2018-05-21T15:25:06.602Z,3.67
2018-05-21T15:27:32.952Z,3.80
2018-05-21T15:30:00.060Z,3.43
2018-05-21T15:32:26.443Z,3.30
2018-05-21T15:34:52.787Z,3.00
2018-05-21T15:37:19.147Z,3.43
2018-05-21T15:39:45.524Z,3.87
2018-05-21T15:42:11.899Z,3.37
2018-05-21T15:44:38.253Z,3.80
2018-05-21T15:47:04.646Z,3.83
2018-05-21T15:49:31.774Z,3.50
2018-05-21T15:51:58.162Z,3.20
2018-05-21T15:54:24.534Z,3.43
2018-05-21T15:56:51.658Z,3.73
2018-05-21T15:59:25.062Z,3.27
2018-05-21T16:01:51.422Z,3.60
2018-05-21T16:04:18.523Z,3.60
2018-05-21T16:06:44.894Z,3.60
2018-05-21T16:09:12.107Z,3.40
2018-05-21T16:11:38.452Z,3.40
2018-05-21T16:14:04.820Z,3.63
2018-05-21T16:16:31.141Z,3.73
2018-05-21T16:18:57.501Z,3.60
2018-05-21T16:21:24.593Z,3.30
2018-05-21T16:23:50.937Z,3.50
2018-05-21T16:26:17.300Z,3.77
2018-05-21T16:28:44.439Z,4.00
2018-05-21T16:31:11.560Z,4.13
2018-05-21T16:33:37.884Z,4.10
2018-05-21T16:36:04.278Z,3.43
2018-05-21T16:38:30.653Z,3.70
2018-05-21T16:40:57.024Z,3.53
2018-05-21T16:43:24.125Z,4.33
2018-05-21T16:45:50.549Z,3.60
2018-05-21T16:48:16.915Z,3.70
2018-05-21T16:50:43.296Z,3.63
2018-05-21T16:53:10.356Z,3.27
2018-05-21T16:55:36.704Z,3.80
2018-05-21T16:58:03.095Z,3.57
2018-05-21T17:00:29.567Z,3.33
2018-05-21T17:02:55.777Z,3.67
2018-05-21T17:05:22.153Z,3.80
2018-05-21T17:07:48.501Z,3.70
2018-05-21T17:10:15.585Z,4.00
2018-05-21T17:12:41.985Z,3.80
2018-05-21T17:15:09.180Z,3.40
2018-05-21T17:17:35.541Z,4.10
2018-05-21T17:20:01.957Z,3.83
2018-05-21T17:22:29.313Z,3.17
2018-05-21T17:24:55.731Z,3.43
2018-05-21T17:27:22.165Z,3.17
2018-05-21T17:29:48.541Z,4.03
2018-05-21T17:32:16.393Z,4.37
2018-05-21T17:34:42.773Z,3.70
2018-05-21T17:37:09.849Z,3.30
2018-05-21T17:39:36.172Z,3.70
2018-05-21T17:42:02.583Z,4.20
2018-05-21T17:44:29.019Z,3.80
2018-05-21T17:46:55.387Z,3.23
2018-05-21T17:49:21.783Z,3.50
2018-05-21T17:51:48.187Z,4.00
2018-05-21T17:54:15.346Z,3.70
2018-05-21T17:56:41.744Z,3.73
2018-05-21T17:59:08.083Z,3.90
2018-05-21T18:01:34.482Z,4.00
2018-05-21T18:04:00.889Z,3.63
2018-05-21T18:06:28.008Z,3.70
2018-05-21T18:08:54.419Z,3.63
2018-05-21T18:11:20.777Z,3.90
2018-05-21T18:13:47.121Z,3.87
2018-05-21T18:16:14.301Z,3.60
2018-05-21T18:18:40.694Z,3.93
2018-05-21T18:21:07.805Z,4.20
2018-05-21T18:23:34.171Z,4.00
2018-05-21T18:26:01.357Z,4.23
2018-05-21T18:28:27.743Z,3.80
2018-05-21T18:30:54.096Z,4.07
2018-05-21T18:33:21.223Z,4.07
2018-05-21T18:35:47.627Z,4.27
2018-05-21T18:38:14.664Z,4.17
2018-05-21T18:40:41.030Z,4.50
2018-05-21T18:43:07.380Z,4.60
2018-05-21T18:45:33.746Z,4.50
2018-05-21T18:48:00.152Z,3.90
2018-05-21T18:50:27.262Z,4.90
2018-05-21T18:52:53.577Z,4.63
2018-05-21T18:55:19.982Z,4.77
2018-05-21T18:57:46.305Z,5.60
2018-05-21T19:00:13.503Z,4.70
2018-05-21T19:02:40.563Z,5.17
2018-05-21T19:05:06.911Z,5.00
2018-05-21T19:07:33.259Z,10.30
2018-05-21T19:10:00.366Z,4.80
2018-05-21T19:12:26.703Z,4.70
2018-05-21T19:14:53.044Z,5.13
2018-05-21T19:17:19.453Z,5.80
2018-05-21T19:19:45.817Z,9.63
2018-05-21T19:22:12.947Z,10.50
2018-05-21T19:24:39.342Z,5.43
2018-05-21T19:27:05.813Z,4.60
2018-05-21T19:29:32.205Z,5.90
2018-05-21T19:31:58.701Z,6.93
2018-05-21T19:34:25.015Z,5.20
2018-05-21T19:36:51.838Z,7.00
2018-05-21T19:39:18.926Z,6.30
2018-05-21T19:41:45.396Z,4.63
2018-05-21T19:44:11.770Z,4.73
2018-05-21T19:46:38.989Z,5.20
2018-05-21T19:49:05.350Z,4.70
2018-05-21T19:51:31.842Z,5.70
2018-05-21T19:53:58.238Z,5.13
2018-05-21T19:56:26.068Z,4.73
2018-05-21T19:58:52.540Z,5.07
2018-05-21T20:01:18.921Z,5.00
2018-05-21T20:03:45.285Z,4.70
2018-05-21T20:06:11.621Z,5.17
2018-05-21T20:08:37.987Z,4.83
2018-05-21T20:11:05.820Z,4.47
2018-05-21T20:13:32.183Z,5.20
2018-05-21T20:15:59.342Z,5.13
2018-05-21T20:18:32.005Z,4.83
2018-05-21T20:20:58.381Z,4.60
2018-05-21T20:23:24.807Z,5.30
2018-05-21T20:25:51.163Z,4.10
2018-05-21T20:28:17.628Z,4.83
2018-05-21T20:30:44.100Z,5.30
2018-05-21T20:33:11.174Z,5.10
2018-05-21T20:35:37.530Z,6.07
2018-05-21T20:38:03.920Z,5.20
2018-05-21T20:40:30.267Z,5.30
2018-05-21T20:42:56.665Z,5.20
2018-05-21T20:45:23.105Z,4.60
2018-05-21T20:47:49.425Z,4.47
2018-05-21T20:50:15.795Z,4.37
2018-05-21T20:52:42.146Z,4.30
2018-05-21T20:55:09.358Z,4.33
2018-05-21T20:57:35.750Z,3.80
2018-05-21T21:00:02.123Z,3.93
2018-05-21T21:02:28.476Z,3.90
2018-05-21T21:04:54.865Z,4.17
2018-05-21T21:07:21.270Z,3.83
2018-05-21T21:09:47.611Z,4.20
2018-05-21T21:12:14.759Z,3.80
2018-05-21T21:14:41.849Z,4.13
2018-05-21T21:17:08.211Z,3.30
2018-05-21T21:19:34.610Z,4.13
2018-05-21T21:22:00.984Z,3.60
2018-05-21T21:24:27.364Z,3.00
2018-05-21T21:26:53.758Z,3.47
2018-05-21T21:29:20.068Z,3.73
2018-05-21T21:31:46.400Z,4.10
2018-05-21T21:34:12.762Z,3.20
2018-05-21T21:36:39.098Z,3.33
2018-05-21T21:39:06.219Z,4.20
2018-05-21T21:41:32.641Z,3.57
2018-05-21T21:43:58.991Z,3.20
2018-05-21T21:46:25.325Z,3.73
2018-05-21T21:48:51.701Z,3.10
2018-05-21T21:51:18.049Z,3.50
2018-05-21T21:53:44.442Z,3.17
2018-05-21T21:56:11.590Z,3.50
2018-05-21T21:58:37.966Z,3.10
2018-05-21T22:01:04.342Z,3.40
2018-05-21T22:03:30.739Z,3.30
2018-05-21T22:05:57.092Z,3.30
2018-05-21T22:08:23.473Z,3.20
2018-05-21T22:10:50.570Z,3.53
2018-05-21T22:13:16.923Z,3.37
2018-05-21T22:15:43.475Z,3.20
2018-05-21T22:18:09.995Z,2.97
2018-05-21T22:20:36.312Z,3.47
2018-05-21T22:23:03.083Z,3.13
2018-05-21T22:25:29.559Z,3.50
2018-05-21T22:27:55.910Z,3.23
2018-05-21T22:30:23.072Z,3.73
2018-05-21T22:32:49.455Z,3.40
2018-05-21T22:35:15.791Z,3.30
2018-05-21T22:37:42.147Z,2.63
2018-05-21T22:40:08.517Z,3.10
2018-05-21T22:42:36.202Z,3.10
2018-05-21T22:45:02.597Z,3.17
2018-05-21T22:47:28.949Z,3.53
2018-05-21T22:49:56.029Z,2.70
2018-05-21T22:52:22.372Z,3.23
2018-05-21T22:54:48.756Z,2.73
2018-05-21T22:57:15.869Z,2.90
2018-05-21T22:59:42.235Z,3.20
2018-05-21T23:02:08.631Z,3.20
2018-05-21T23:04:34.986Z,3.20
2018-05-21T23:07:01.364Z,3.30
2018-05-21T23:09:27.745Z,3.27
2018-05-21T23:11:54.114Z,3.60
2018-05-21T23:14:20.483Z,3.47
2018-05-21T23:16:46.888Z,3.33
2018-05-21T23:19:13.248Z,2.90
2018-05-21T23:21:39.603Z,3.00
2018-05-21T23:24:05.971Z,3.70
2018-05-21T23:26:32.304Z,3.27
2018-05-21T23:28:58.658Z,3.57
2018-05-21T23:31:25.137Z,3.80
2018-05-21T23:33:51.505Z,3.67
2018-05-21T23:36:17.845Z,3.33
2018-05-21T23:38:44.231Z,3.60
2018-05-21T23:41:10.564Z,3.37
2018-05-21T23:43:36.913Z,3.33
2018-05-21T23:46:04.032Z,3.23
2018-05-21T23:48:30.370Z,3.47
2018-05-21T23:50:56.777Z,3.20
2018-05-21T23:53:23.833Z,3.50
2018-05-21T23:55:50.217Z,3.43
2018-05-21T23:58:16.563Z,2.97
